createdAt,value
2023-05-01T00:01:30.640Z,1.30
2023-05-01T00:03:57.322Z,1.60
2023-05-01T00:06:24.468Z,1.90
2023-05-01T00:08:51.002Z,1.23
2023-05-01T00:11:17.550Z,1.20
2023-05-01T00:13:44.074Z,1.85
2023-05-01T00:16:12.059Z,1.00
2023-05-01T00:18:39.486Z,1.30
2023-05-01T00:21:06.332Z,1.42
2023-05-01T00:23:32.914Z,1.27
2023-05-01T00:25:59.413Z,1.35
2023-05-01T00:28:26.028Z,1.35
2023-05-01T00:30:52.669Z,2.20
2023-05-01T00:33:19.232Z,1.60
2023-05-01T00:35:46.526Z,1.55
2023-05-01T00:38:13.413Z,1.70
2023-05-01T00:40:47.002Z,1.20
2023-05-01T00:43:13.870Z,1.20
2023-05-01T00:45:44.645Z,1.33
2023-05-01T00:48:11.663Z,1.88
2023-05-01T00:50:39.095Z,1.50
2023-05-01T00:53:05.744Z,1.42
2023-05-01T00:55:33.577Z,1.42
2023-05-01T00:58:01.758Z,1.98
2023-05-01T01:00:29.601Z,1.25
2023-05-01T01:02:56.376Z,1.95
2023-05-01T01:05:25.883Z,1.50
2023-05-01T01:08:07.938Z,1.42
2023-05-01T01:10:58.615Z,1.58
2023-05-01T01:14:03.631Z,1.50
2023-05-01T01:16:36.331Z,1.40
2023-05-01T01:19:34.628Z,1.20
2023-05-01T01:22:12.343Z,1.80
2023-05-01T01:25:22.454Z,1.85
2023-05-01T01:28:11.277Z,1.77
2023-05-01T01:30:56.941Z,1.30
2023-05-01T01:39:41.432Z,1.48
2023-05-01T01:42:28.855Z,1.50
2023-05-01T01:45:15.406Z,1.60
2023-05-01T01:47:44.799Z,1.45
2023-05-01T01:50:48.693Z,1.40
2023-05-01T01:56:17.160Z,0.93
2023-05-01T01:58:50.596Z,1.30
2023-05-01T02:01:36.833Z,1.30
2023-05-01T02:05:31.773Z,1.40
2023-05-01T02:07:11.079Z,1.63
2023-05-01T02:09:42.785Z,1.33
2023-05-01T02:12:24.018Z,1.70
2023-05-01T02:15:11.587Z,1.20
2023-05-01T02:17:46.134Z,1.40
2023-05-01T02:20:27.143Z,1.58
2023-05-01T02:23:13.334Z,1.52
2023-05-01T02:28:42.833Z,1.55
2023-05-01T02:31:14.440Z,1.35
2023-05-01T02:33:46.403Z,1.42
2023-05-01T02:36:21.188Z,1.38
2023-05-01T02:38:59.881Z,1.70
2023-05-01T02:41:45.188Z,1.52
2023-05-01T02:44:18.234Z,1.73
2023-05-01T02:49:49.995Z,2.17
2023-05-01T02:52:54.427Z,1.92
2023-05-01T02:55:50.281Z,2.17
2023-05-01T02:58:44.806Z,1.80
2023-05-01T03:01:13.664Z,1.73
2023-05-01T03:06:35.923Z,2.10
2023-05-01T03:09:05.794Z,1.77
2023-05-01T03:14:48.575Z,2.53
2023-05-01T03:17:16.734Z,1.92
2023-05-01T03:19:53.340Z,1.92
2023-05-01T03:22:47.055Z,1.75
2023-05-01T03:25:20.257Z,2.50
2023-05-01T03:28:13.484Z,2.75
2023-05-01T03:30:53.188Z,3.38
2023-05-01T03:33:38.849Z,2.80
2023-05-01T03:36:26.259Z,2.20
2023-05-01T03:38:55.600Z,2.05
2023-05-01T03:41:24.272Z,1.92
2023-05-01T03:43:53.321Z,2.03
2023-05-01T03:46:31.968Z,2.33
2023-05-01T03:49:01.710Z,2.03
2023-05-01T03:51:30.709Z,2.22
2023-05-01T03:54:24.166Z,2.17
2023-05-01T03:57:24.785Z,2.10
2023-05-01T04:02:43.630Z,1.63
2023-05-01T04:05:15.834Z,2.00
2023-05-01T04:07:49.646Z,2.05
2023-05-01T04:10:17.566Z,2.00
2023-05-01T04:12:50.218Z,1.73
2023-05-01T04:15:36.052Z,2.22
2023-05-01T04:18:16.728Z,2.40
2023-05-01T04:20:46.807Z,2.22
2023-05-01T04:23:19.224Z,2.42
2023-05-01T04:25:47.429Z,2.17
2023-05-01T04:28:21.259Z,2.60
2023-05-01T04:31:02.304Z,2.25
2023-05-01T04:33:35.920Z,2.08
2023-05-01T04:36:05.136Z,1.80
2023-05-01T04:38:38.439Z,2.30
2023-05-01T04:41:06.204Z,2.30
2023-05-01T04:43:35.252Z,1.90
2023-05-01T04:46:05.260Z,1.45
2023-05-01T04:48:37.276Z,2.00
2023-05-01T04:51:04.298Z,1.95
2023-05-01T04:53:38.481Z,2.08
2023-05-01T04:56:05.759Z,2.23
2023-05-01T04:58:39.853Z,2.15
2023-05-01T05:01:11.536Z,1.90
2023-05-01T05:03:40.712Z,1.85
2023-05-01T05:06:14.545Z,2.17
2023-05-01T05:08:44.685Z,2.15
2023-05-01T05:11:32.917Z,2.55
2023-05-01T05:14:00.658Z,2.38
2023-05-01T05:16:27.297Z,2.60
2023-05-01T05:18:59.251Z,2.53
2023-05-01T05:21:25.828Z,2.13
2023-05-01T05:23:52.395Z,1.92
2023-05-01T05:26:19.037Z,2.15
2023-05-01T05:28:45.860Z,2.50
2023-05-01T05:31:12.425Z,3.10
2023-05-01T05:33:39.025Z,2.60
2023-05-01T05:36:06.366Z,2.72
2023-05-01T05:38:32.935Z,2.70
2023-05-01T05:41:00.926Z,3.60
2023-05-01T05:43:28.255Z,3.72
2023-05-01T05:45:59.284Z,3.63
2023-05-01T05:48:26.926Z,2.30
2023-05-01T05:50:53.744Z,3.88
2023-05-01T05:53:20.666Z,2.47
2023-05-01T05:55:47.787Z,3.05
2023-05-01T05:58:19.880Z,2.50
2023-05-01T06:00:48.377Z,2.13
2023-05-01T06:03:16.189Z,2.60
2023-05-01T06:05:43.864Z,3.05
2023-05-01T06:08:10.560Z,2.95
2023-05-01T06:10:37.494Z,2.88
2023-05-01T06:13:13.488Z,2.67
2023-05-01T06:15:41.665Z,3.42
2023-05-01T06:18:08.655Z,2.95
2023-05-01T06:20:35.532Z,3.33
2023-05-01T06:23:02.082Z,2.83
2023-05-01T06:25:28.619Z,3.10
2023-05-01T06:27:55.408Z,2.88
2023-05-01T06:30:21.996Z,3.40
2023-05-01T06:32:48.978Z,3.92
2023-05-01T06:35:15.654Z,2.58
2023-05-01T06:37:42.221Z,2.47
2023-05-01T06:40:09.922Z,3.03
2023-05-01T06:42:38.307Z,2.95
2023-05-01T06:45:08.544Z,2.30
2023-05-01T06:47:35.408Z,3.00
2023-05-01T06:50:05.076Z,2.70
2023-05-01T06:52:32.142Z,2.40
2023-05-01T06:54:58.683Z,2.58
2023-05-01T06:57:25.380Z,4.05
2023-05-01T06:59:51.894Z,2.42
2023-05-01T07:02:18.531Z,3.15
2023-05-01T07:04:45.420Z,3.13
2023-05-01T07:07:12.110Z,3.50
2023-05-01T07:09:38.850Z,3.45
2023-05-01T07:12:06.791Z,2.45
2023-05-01T07:14:35.379Z,2.85
2023-05-01T07:17:02.681Z,2.83
2023-05-01T07:19:29.421Z,2.90
2023-05-01T07:21:56.034Z,3.58
2023-05-01T07:24:22.800Z,3.38
2023-05-01T07:26:49.371Z,3.17
2023-05-01T07:29:16.590Z,2.80
2023-05-01T07:31:43.793Z,3.35
2023-05-01T07:34:10.584Z,2.85
2023-05-01T07:36:37.636Z,3.20
2023-05-01T07:39:04.526Z,3.08
2023-05-01T07:41:31.725Z,3.08
2023-05-01T07:44:01.599Z,2.92
2023-05-01T07:46:28.372Z,2.60
2023-05-01T07:48:55.142Z,2.80
2023-05-01T07:51:21.807Z,3.10
2023-05-01T07:53:48.723Z,3.10
2023-05-01T07:56:16.184Z,3.38
2023-05-01T07:58:43.967Z,2.67
2023-05-01T08:01:10.915Z,3.08
2023-05-01T08:03:37.814Z,2.75
2023-05-01T08:06:05.177Z,2.80
2023-05-01T08:08:31.793Z,2.30
2023-05-01T08:10:58.413Z,3.47
2023-05-01T08:13:25.053Z,2.63
2023-05-01T08:15:52.628Z,2.60
2023-05-01T08:18:22.160Z,3.97
2023-05-01T08:20:49.516Z,2.95
2023-05-01T08:23:17.369Z,2.70
2023-05-01T08:25:46.881Z,2.88
2023-05-01T08:28:17.288Z,2.75
2023-05-01T08:30:46.786Z,2.58
2023-05-01T08:33:13.428Z,2.33
2023-05-01T08:35:39.967Z,4.38
2023-05-01T08:38:06.804Z,2.50
2023-05-01T08:40:38.042Z,2.60
2023-05-01T08:43:05.223Z,1.67
2023-05-01T08:45:37.825Z,2.67
2023-05-01T08:48:10.331Z,2.13
2023-05-01T08:50:39.701Z,2.53
2023-05-01T08:53:07.122Z,1.67
2023-05-01T08:55:36.281Z,1.70
2023-05-01T08:58:04.459Z,2.20
2023-05-01T09:00:34.282Z,1.67
2023-05-01T09:03:02.290Z,2.15
2023-05-01T09:05:32.668Z,1.92
2023-05-01T09:07:59.804Z,1.70
2023-05-01T09:10:27.301Z,1.50
2023-05-01T09:13:03.232Z,1.52
2023-05-01T09:15:30.712Z,1.50
2023-05-01T09:18:03.483Z,1.90
2023-05-01T09:20:31.760Z,2.80
2023-05-01T09:22:58.611Z,1.75
2023-05-01T09:25:25.308Z,1.63
2023-05-01T09:27:52.287Z,1.50
2023-05-01T09:30:36.784Z,1.30
2023-05-01T09:33:06.504Z,1.08
2023-05-01T09:35:34.155Z,1.05
2023-05-01T09:38:01.148Z,1.40
2023-05-01T09:40:28.106Z,1.55
2023-05-01T09:42:56.251Z,1.20
2023-05-01T09:45:23.585Z,2.13
2023-05-01T09:47:50.422Z,1.65
2023-05-01T09:50:30.769Z,2.05
2023-05-01T09:52:57.322Z,1.85
2023-05-01T09:55:25.545Z,1.27
2023-05-01T09:57:53.036Z,1.60
2023-05-01T10:00:22.100Z,2.03
2023-05-01T10:02:50.169Z,0.63
2023-05-01T10:05:17.902Z,1.48
2023-05-01T10:08:02.383Z,1.30
2023-05-01T10:10:29.468Z,0.70
2023-05-01T10:12:56.096Z,0.80
2023-05-01T10:15:26.616Z,1.25
2023-05-01T10:17:54.685Z,0.90
2023-05-01T10:20:21.857Z,1.20
2023-05-01T10:22:49.257Z,1.00
2023-05-01T10:25:17.655Z,0.52
2023-05-01T10:27:44.423Z,0.60
2023-05-01T10:30:11.497Z,0.70
2023-05-01T10:32:41.077Z,0.90
2023-05-01T10:35:12.905Z,0.77
2023-05-01T10:37:47.543Z,0.60
2023-05-01T10:40:39.123Z,0.73
2023-05-01T10:43:32.332Z,0.80
2023-05-01T10:46:08.223Z,1.17
2023-05-01T10:48:37.697Z,2.47
2023-05-01T10:51:14.337Z,3.10
2023-05-01T10:53:46.402Z,2.95
2023-05-01T10:56:21.923Z,2.72
2023-05-01T10:58:55.999Z,3.20
2023-05-01T11:01:51.797Z,4.30
2023-05-01T11:04:27.949Z,3.83
2023-05-01T11:07:08.681Z,2.42
2023-05-01T11:09:43.323Z,2.50
2023-05-01T11:12:11.892Z,2.47
2023-05-01T11:14:53.967Z,1.45
2023-05-01T11:17:49.232Z,1.40
2023-05-01T11:20:24.917Z,1.50
2023-05-01T11:22:55.806Z,1.48
2023-05-01T11:25:24.347Z,1.60
2023-05-01T11:27:52.282Z,2.10
2023-05-01T11:30:19.243Z,2.05
2023-05-01T11:32:48.510Z,3.08
2023-05-01T11:35:28.521Z,2.55
2023-05-01T11:37:58.142Z,2.55
2023-05-01T11:40:33.336Z,2.65
2023-05-01T11:43:09.372Z,2.78
2023-05-01T11:45:37.460Z,2.90
2023-05-01T11:48:05.310Z,2.97
2023-05-01T11:50:36.897Z,2.97
2023-05-01T11:53:17.285Z,2.75
2023-05-01T11:55:45.035Z,1.92
2023-05-01T11:58:12.406Z,2.03
2023-05-01T12:00:43.368Z,3.05
2023-05-01T12:03:14.754Z,2.30
2023-05-01T12:05:44.323Z,2.20
2023-05-01T12:08:13.574Z,2.00
2023-05-01T12:10:43.270Z,1.85
2023-05-01T12:13:11.703Z,2.53
2023-05-01T12:15:42.150Z,2.83
2023-05-01T12:18:09.096Z,2.97
2023-05-01T12:20:37.932Z,2.70
2023-05-01T12:23:05.885Z,2.92
2023-05-01T12:25:34.372Z,3.67
2023-05-01T12:28:04.425Z,3.80
2023-05-01T12:30:31.140Z,4.47
2023-05-01T12:32:58.309Z,4.30
2023-05-01T12:35:31.057Z,3.63
2023-05-01T12:37:58.828Z,4.30
2023-05-01T12:40:26.875Z,4.15
2023-05-01T12:42:58.026Z,4.43
2023-05-01T12:45:25.392Z,3.90
2023-05-01T12:47:52.303Z,4.63
2023-05-01T12:50:19.922Z,3.65
2023-05-01T12:52:47.294Z,3.92
2023-05-01T12:55:13.935Z,4.10
2023-05-01T12:57:54.308Z,4.05
2023-05-01T13:00:21.281Z,3.65
2023-05-01T13:02:48.292Z,3.47
2023-05-01T13:05:14.890Z,3.63
2023-05-01T13:07:48.819Z,3.38
2023-05-01T13:10:29.317Z,3.78
2023-05-01T13:12:55.973Z,3.70
2023-05-01T13:15:22.601Z,3.42
2023-05-01T13:17:49.448Z,3.88
2023-05-01T13:20:26.489Z,3.47
2023-05-01T13:22:53.223Z,3.50
2023-05-01T13:25:23.413Z,4.07
2023-05-01T13:27:52.372Z,3.08
2023-05-01T13:30:32.620Z,3.42
2023-05-01T13:32:59.496Z,4.10
2023-05-01T13:35:27.270Z,3.72
2023-05-01T13:37:54.796Z,3.53
2023-05-01T13:40:27.772Z,4.10
2023-05-01T13:42:54.404Z,4.30
2023-05-01T13:45:21.469Z,4.18
2023-05-01T13:47:50.023Z,4.60
2023-05-01T13:50:18.138Z,3.83
2023-05-01T13:52:45.820Z,3.90
2023-05-01T13:55:13.672Z,4.75
2023-05-01T13:57:42.344Z,4.43
2023-05-01T14:00:14.424Z,4.20
2023-05-01T14:02:48.843Z,3.95
2023-05-01T14:05:16.339Z,4.82
2023-05-01T14:07:55.529Z,4.75
2023-05-01T14:10:23.891Z,4.43
2023-05-01T14:12:50.968Z,4.75
2023-05-01T14:15:17.617Z,4.85
2023-05-01T14:17:44.834Z,4.97
2023-05-01T14:20:12.218Z,5.07
2023-05-01T14:22:52.320Z,4.40
2023-05-01T14:25:21.975Z,4.85
2023-05-01T14:27:48.957Z,4.88
2023-05-01T14:30:33.448Z,5.00
2023-05-01T14:33:04.482Z,4.75
2023-05-01T14:35:31.346Z,4.60
2023-05-01T14:38:08.976Z,4.60
2023-05-01T14:40:35.760Z,5.07
2023-05-01T14:43:02.762Z,5.30
2023-05-01T14:45:30.396Z,4.60
2023-05-01T14:47:57.029Z,5.30
2023-05-01T14:50:24.996Z,4.22
2023-05-01T14:52:56.242Z,4.45
2023-05-01T14:55:34.775Z,4.97
2023-05-01T14:58:02.023Z,4.05
2023-05-01T15:00:28.559Z,4.20
2023-05-01T15:02:55.612Z,4.15
2023-05-01T15:05:22.861Z,3.08
2023-05-01T15:07:49.457Z,3.10
2023-05-01T15:10:16.039Z,3.50
2023-05-01T15:12:42.611Z,3.00
2023-05-01T15:15:09.745Z,3.40
2023-05-01T15:17:36.602Z,3.65
2023-05-01T15:20:03.333Z,3.30
2023-05-01T15:22:29.899Z,4.22
2023-05-01T15:24:56.674Z,3.65
2023-05-01T15:27:23.478Z,4.25
2023-05-01T15:29:50.058Z,4.20
2023-05-01T15:32:16.955Z,4.35
2023-05-01T15:34:43.581Z,3.53
2023-05-01T15:37:10.125Z,3.65
2023-05-01T15:39:36.908Z,4.05
2023-05-01T15:42:03.775Z,4.50
2023-05-01T15:44:31.843Z,5.18
2023-05-01T15:46:58.520Z,4.70
2023-05-01T15:49:25.275Z,5.50
2023-05-01T15:51:51.942Z,6.57
2023-05-01T15:54:19.142Z,6.38
2023-05-01T15:56:45.690Z,6.43
2023-05-01T15:59:20.843Z,7.57
2023-05-01T16:01:47.479Z,6.63
2023-05-01T16:04:14.213Z,7.10
2023-05-01T16:06:41.474Z,6.38
2023-05-01T16:09:08.063Z,5.78
2023-05-01T16:11:35.677Z,6.15
2023-05-01T16:14:02.576Z,5.32
2023-05-01T16:16:29.467Z,5.38
2023-05-01T16:18:58.824Z,5.07
2023-05-01T16:21:27.282Z,5.32
2023-05-01T16:24:01.748Z,5.38
2023-05-01T16:26:30.195Z,5.15
2023-05-01T16:29:00.329Z,6.22
2023-05-01T16:31:27.983Z,6.18
2023-05-01T16:33:56.703Z,5.72
2023-05-01T16:36:23.312Z,5.63
2023-05-01T16:38:49.868Z,6.60
2023-05-01T16:41:17.904Z,5.57
2023-05-01T16:43:46.132Z,7.90
2023-05-01T16:46:15.247Z,9.10
2023-05-01T16:48:42.105Z,8.52
2023-05-01T16:51:09.918Z,7.82
2023-05-01T16:53:36.811Z,8.77
2023-05-01T16:56:05.100Z,8.75
2023-05-01T16:58:31.883Z,10.32
2023-05-01T17:00:58.556Z,10.05
2023-05-01T17:03:25.097Z,10.23
2023-05-01T17:05:52.056Z,10.90
2023-05-01T17:08:18.609Z,10.95
2023-05-01T17:10:45.374Z,10.90
2023-05-01T17:13:14.521Z,10.10
2023-05-01T17:15:41.843Z,10.90
2023-05-01T17:18:08.680Z,11.30
2023-05-01T17:20:35.424Z,10.82
2023-05-01T17:23:02.068Z,12.07
2023-05-01T17:25:28.755Z,10.48
2023-05-01T17:27:55.762Z,11.20
2023-05-01T17:30:22.386Z,12.50
2023-05-01T17:32:49.047Z,12.70
2023-05-01T17:35:16.616Z,11.30
2023-05-01T17:37:43.158Z,12.35
2023-05-01T17:40:12.812Z,12.25
2023-05-01T17:42:39.641Z,13.43
2023-05-01T17:45:07.570Z,13.50
2023-05-01T17:47:34.677Z,12.57
2023-05-01T17:50:04.807Z,13.50
2023-05-01T17:52:31.845Z,13.48
2023-05-01T17:54:58.567Z,13.95
2023-05-01T17:57:25.123Z,14.73
2023-05-01T17:59:51.662Z,15.57
2023-05-01T18:02:18.358Z,15.10
2023-05-01T18:04:46.942Z,14.82
2023-05-01T18:07:13.484Z,15.65
2023-05-01T18:09:40.086Z,16.20
2023-05-01T18:12:06.725Z,16.63
2023-05-01T18:14:33.261Z,17.38
2023-05-01T18:17:00.305Z,16.20
2023-05-01T18:19:26.942Z,16.40
2023-05-01T18:21:53.479Z,15.18
2023-05-01T18:24:20.145Z,16.33
2023-05-01T18:26:46.718Z,16.70
2023-05-01T18:29:13.623Z,16.85
2023-05-01T18:31:40.210Z,16.77
2023-05-01T18:34:07.298Z,17.02
2023-05-01T18:36:33.948Z,16.25
2023-05-01T18:39:01.900Z,16.70
2023-05-01T18:41:28.476Z,16.23
2023-05-01T18:43:57.863Z,16.67
2023-05-01T18:46:24.766Z,16.67
2023-05-01T18:48:51.440Z,16.35
2023-05-01T18:51:18.175Z,15.27
2023-05-01T18:53:44.787Z,15.23
2023-05-01T18:56:11.436Z,17.02
2023-05-01T18:58:39.810Z,17.40
2023-05-01T19:01:06.811Z,18.13
2023-05-01T19:03:33.515Z,17.05
2023-05-01T19:06:00.202Z,16.67
2023-05-01T19:08:26.784Z,17.17
2023-05-01T19:10:53.465Z,17.52
2023-05-01T19:13:20.015Z,16.52
2023-05-01T19:15:46.611Z,16.45
2023-05-01T19:18:13.301Z,16.58
2023-05-01T19:20:39.883Z,16.30
2023-05-01T19:23:06.453Z,17.45
2023-05-01T19:25:34.268Z,16.67
2023-05-01T19:28:02.119Z,16.42
2023-05-01T19:30:28.779Z,17.63
2023-05-01T19:32:55.537Z,17.73
2023-05-01T19:35:22.108Z,16.60
2023-05-01T19:37:54.189Z,16.92
2023-05-01T19:40:20.892Z,17.25
2023-05-01T19:42:47.439Z,16.63
2023-05-01T19:45:15.680Z,18.25
2023-05-01T19:47:43.902Z,17.35
2023-05-01T19:50:11.296Z,16.10
2023-05-01T19:52:37.926Z,17.45
2023-05-01T19:55:05.234Z,17.38
2023-05-01T19:57:32.186Z,17.52
2023-05-01T19:59:59.264Z,17.23
2023-05-01T20:02:25.976Z,17.92
2023-05-01T20:04:52.667Z,19.25
2023-05-01T20:07:19.255Z,17.50
2023-05-01T20:09:46.007Z,16.83
2023-05-01T20:12:12.756Z,16.63
2023-05-01T20:14:39.433Z,16.52
2023-05-01T20:17:12.013Z,16.55
2023-05-01T20:19:39.815Z,15.38
2023-05-01T20:22:10.073Z,15.27
2023-05-01T20:24:36.894Z,15.10
2023-05-01T20:27:04.285Z,17.20
2023-05-01T20:29:30.869Z,16.17
2023-05-01T20:31:58.953Z,16.65
2023-05-01T20:34:25.627Z,16.67
2023-05-01T20:36:52.274Z,17.30
2023-05-01T20:39:18.920Z,16.92
2023-05-01T20:41:45.527Z,15.52
2023-05-01T20:44:12.152Z,16.75
2023-05-01T20:46:39.381Z,16.05
2023-05-01T20:49:08.642Z,16.48
2023-05-01T20:51:35.351Z,15.75
2023-05-01T20:54:01.915Z,14.73
2023-05-01T20:56:28.477Z,15.73
2023-05-01T20:58:55.098Z,16.88
2023-05-01T21:01:21.739Z,17.15
2023-05-01T21:03:48.955Z,15.32
2023-05-01T21:06:15.927Z,16.98
2023-05-01T21:08:42.705Z,14.77
2023-05-01T21:11:09.378Z,13.93
2023-05-01T21:13:36.061Z,14.73
2023-05-01T21:16:02.842Z,14.07
2023-05-01T21:18:33.434Z,13.85
2023-05-01T21:21:02.242Z,13.73
2023-05-01T21:23:29.713Z,13.05
2023-05-01T21:25:56.638Z,14.32
2023-05-01T21:28:23.241Z,13.85
2023-05-01T21:30:49.850Z,12.70
2023-05-01T21:33:19.678Z,13.13
2023-05-01T21:35:46.728Z,12.70
2023-05-01T21:38:13.596Z,12.82
2023-05-01T21:40:41.895Z,12.57
2023-05-01T21:43:09.312Z,11.70
2023-05-01T21:45:40.576Z,10.98
2023-05-01T21:48:09.054Z,10.30
2023-05-01T21:50:40.199Z,10.27
2023-05-01T21:53:07.110Z,11.32
2023-05-01T21:55:33.849Z,10.52
2023-05-01T21:58:00.802Z,9.32
2023-05-01T22:00:28.121Z,10.57
2023-05-01T22:02:54.738Z,10.00
2023-05-01T22:05:22.936Z,10.73
2023-05-01T22:07:52.138Z,10.70
2023-05-01T22:10:19.707Z,10.95
2023-05-01T22:12:47.051Z,10.80
2023-05-01T22:15:15.568Z,10.35
2023-05-01T22:17:42.753Z,10.73
2023-05-01T22:20:10.094Z,9.90
2023-05-01T22:22:38.473Z,11.00
2023-05-01T22:25:06.070Z,10.45
2023-05-01T22:27:33.898Z,10.95
2023-05-01T22:30:00.842Z,10.15
2023-05-01T22:32:28.317Z,9.48
2023-05-01T22:34:55.530Z,10.38
2023-05-01T22:37:22.308Z,9.50
2023-05-01T22:39:48.866Z,9.07
2023-05-01T22:42:15.412Z,10.38
2023-05-01T22:44:42.006Z,11.10
2023-05-01T22:47:08.543Z,11.65
2023-05-01T22:49:35.472Z,11.80
2023-05-01T22:52:02.744Z,11.88
2023-05-01T22:54:29.407Z,13.63
2023-05-01T22:56:56.353Z,11.38
2023-05-01T22:59:22.942Z,11.10
2023-05-01T23:01:49.780Z,12.75
2023-05-01T23:04:16.642Z,12.73
2023-05-01T23:06:46.172Z,12.18
2023-05-01T23:09:12.875Z,11.57
2023-05-01T23:11:40.703Z,12.07
2023-05-01T23:14:07.598Z,10.52
2023-05-01T23:16:41.648Z,10.23
2023-05-01T23:19:18.958Z,9.35
2023-05-01T23:21:45.790Z,8.52
2023-05-01T23:24:18.191Z,7.68
2023-05-01T23:26:45.358Z,7.65
2023-05-01T23:29:13.664Z,7.35
2023-05-01T23:31:47.208Z,7.80
2023-05-01T23:34:17.082Z,6.50
2023-05-01T23:36:46.163Z,7.15
2023-05-01T23:39:13.631Z,6.65
2023-05-01T23:41:40.349Z,5.82
2023-05-01T23:44:07.457Z,5.82
2023-05-01T23:46:34.402Z,6.05
2023-05-01T23:49:01.100Z,6.18
2023-05-01T23:51:27.847Z,5.45
2023-05-01T23:53:54.445Z,4.32
2023-05-01T23:56:21.084Z,4.45
2023-05-01T23:58:47.742Z,4.97
